sensor_id;sensor_type;location;lat;lon;timestamp;pressure;altitude;pressure_sealevel;temperature;humidity
50368;BME280;36281;34.132;-118.018;2022-12-07T00:01:04;100213.47;;;16.84;53.22
50368;BME280;36281;34.132;-118.018;2022-12-07T00:03:32;100203.56;;;16.85;53.82
50368;BME280;36281;34.132;-118.018;2022-12-07T00:06:01;100206.44;;;16.78;54.24
50368;BME280;36281;34.132;-118.018;2022-12-07T00:08:32;100202.25;;;16.70;54.85
50368;BME280;36281;34.132;-118.018;2022-12-07T00:11:01;100201.63;;;16.63;54.86
50368;BME280;36281;34.132;-118.018;2022-12-07T00:13:30;100202.91;;;16.61;55.27
50368;BME280;36281;34.132;-118.018;2022-12-07T00:15:59;100200.06;;;16.50;55.60
50368;BME280;36281;34.132;-118.018;2022-12-07T00:18:28;100201.03;;;16.44;55.30
50368;BME280;36281;34.132;-118.018;2022-12-07T00:20:59;100191.88;;;16.40;55.54
50368;BME280;36281;34.132;-118.018;2022-12-07T00:23:27;100190.97;;;16.35;55.78
50368;BME280;36281;34.132;-118.018;2022-12-07T00:26:02;100195.09;;;16.25;55.78
50368;BME280;36281;34.132;-118.018;2022-12-07T00:28:30;100204.34;;;16.18;56.30
50368;BME280;36281;34.132;-118.018;2022-12-07T00:31:00;100205.84;;;16.14;56.49
50368;BME280;36281;34.132;-118.018;2022-12-07T00:33:28;100202.28;;;16.08;56.61
50368;BME280;36281;34.132;-118.018;2022-12-07T00:35:56;100212.06;;;16.02;56.55
50368;BME280;36281;34.132;-118.018;2022-12-07T00:38:26;100220.00;;;15.97;56.87
50368;BME280;36281;34.132;-118.018;2022-12-07T00:41:00;100220.34;;;15.89;56.95
50368;BME280;36281;34.132;-118.018;2022-12-07T00:43:29;100223.97;;;15.83;57.25
50368;BME280;36281;34.132;-118.018;2022-12-07T00:45:57;100219.25;;;15.73;57.70
50368;BME280;36281;34.132;-118.018;2022-12-07T00:48:26;100213.47;;;15.65;57.98
50368;BME280;36281;34.132;-118.018;2022-12-07T00:50:54;100217.63;;;15.61;58.29
50368;BME280;36281;34.132;-118.018;2022-12-07T00:53:22;100218.56;;;15.55;58.73
50368;BME280;36281;34.132;-118.018;2022-12-07T00:55:51;100216.84;;;15.48;59.30
50368;BME280;36281;34.132;-118.018;2022-12-07T00:58:21;100214.53;;;15.40;59.95
50368;BME280;36281;34.132;-118.018;2022-12-07T01:00:50;100217.69;;;15.37;60.14
50368;BME280;36281;34.132;-118.018;2022-12-07T01:03:18;100222.31;;;15.30;60.47
50368;BME280;36281;34.132;-118.018;2022-12-07T01:05:50;100222.81;;;15.27;60.64
50368;BME280;36281;34.132;-118.018;2022-12-07T01:08:19;100226.72;;;15.24;61.27
50368;BME280;36281;34.132;-118.018;2022-12-07T01:10:47;100224.19;;;15.18;61.97
50368;BME280;36281;34.132;-118.018;2022-12-07T01:13:16;100228.13;;;15.04;62.97
50368;BME280;36281;34.132;-118.018;2022-12-07T01:15:46;100227.34;;;15.03;63.56
50368;BME280;36281;34.132;-118.018;2022-12-07T01:18:14;100225.25;;;14.93;63.77
50368;BME280;36281;34.132;-118.018;2022-12-07T01:20:42;100232.31;;;14.88;64.33
50368;BME280;36281;34.132;-118.018;2022-12-07T01:23:10;100237.72;;;14.81;64.71
50368;BME280;36281;34.132;-118.018;2022-12-07T01:25:39;100240.16;;;14.71;64.91
50368;BME280;36281;34.132;-118.018;2022-12-07T01:28:07;100249.53;;;14.62;65.41
50368;BME280;36281;34.132;-118.018;2022-12-07T01:30:35;100248.94;;;14.48;65.69
50368;BME280;36281;34.132;-118.018;2022-12-07T01:33:05;100257.44;;;14.38;66.41
50368;BME280;36281;34.132;-118.018;2022-12-07T01:35:33;100249.53;;;14.32;66.94
50368;BME280;36281;34.132;-118.018;2022-12-07T01:38:01;100262.66;;;14.33;66.88
50368;BME280;36281;34.132;-118.018;2022-12-07T01:40:30;100258.91;;;14.22;67.22
50368;BME280;36281;34.132;-118.018;2022-12-07T01:42:58;100266.53;;;14.19;67.69
50368;BME280;36281;34.132;-118.018;2022-12-07T01:48:14;100268.16;;;14.02;68.23
50368;BME280;36281;34.132;-118.018;2022-12-07T01:50:44;100267.53;;;13.88;68.73
50368;BME280;36281;34.132;-118.018;2022-12-07T01:53:13;100270.06;;;13.83;69.43
50368;BME280;36281;34.132;-118.018;2022-12-07T01:55:42;100275.44;;;13.76;69.86
50368;BME280;36281;34.132;-118.018;2022-12-07T01:58:12;100275.81;;;13.80;69.78
50368;BME280;36281;34.132;-118.018;2022-12-07T02:00:41;100278.72;;;13.78;70.28
50368;BME280;36281;34.132;-118.018;2022-12-07T02:03:10;100279.53;;;13.79;70.68
50368;BME280;36281;34.132;-118.018;2022-12-07T02:05:42;100285.78;;;13.66;71.23
50368;BME280;36281;34.132;-118.018;2022-12-07T02:08:11;100283.13;;;13.66;71.13
50368;BME280;36281;34.132;-118.018;2022-12-07T02:10:40;100290.69;;;13.69;71.15
50368;BME280;36281;34.132;-118.018;2022-12-07T02:13:09;100284.75;;;13.67;71.35
50368;BME280;36281;34.132;-118.018;2022-12-07T02:15:57;100291.25;;;13.71;71.53
50368;BME280;36281;34.132;-118.018;2022-12-07T02:18:30;100290.69;;;13.69;71.43
50368;BME280;36281;34.132;-118.018;2022-12-07T02:21:05;100292.72;;;13.67;71.70
50368;BME280;36281;34.132;-118.018;2022-12-07T02:23:40;100308.69;;;13.67;71.93
50368;BME280;36281;34.132;-118.018;2022-12-07T02:31:44;100308.41;;;13.57;71.79
50368;BME280;36281;34.132;-118.018;2022-12-07T02:34:18;100305.22;;;13.48;72.21
50368;BME280;36281;34.132;-118.018;2022-12-07T02:36:50;100307.34;;;13.39;72.56
50368;BME280;36281;34.132;-118.018;2022-12-07T02:39:23;100311.72;;;13.34;73.15
50368;BME280;36281;34.132;-118.018;2022-12-07T02:41:54;100310.94;;;13.27;73.49
50368;BME280;36281;34.132;-118.018;2022-12-07T02:44:24;100310.59;;;13.23;73.40
50368;BME280;36281;34.132;-118.018;2022-12-07T02:46:56;100311.59;;;13.22;73.29
50368;BME280;36281;34.132;-118.018;2022-12-07T02:49:27;100308.97;;;13.15;73.30
50368;BME280;36281;34.132;-118.018;2022-12-07T02:51:56;100306.38;;;13.09;73.01
50368;BME280;36281;34.132;-118.018;2022-12-07T02:54:24;100305.41;;;13.03;73.49
50368;BME280;36281;34.132;-118.018;2022-12-07T02:56:53;100310.31;;;13.00;73.70
50368;BME280;36281;34.132;-118.018;2022-12-07T02:59:26;100319.38;;;12.92;74.17
50368;BME280;36281;34.132;-118.018;2022-12-07T03:01:59;100322.47;;;12.89;73.80
50368;BME280;36281;34.132;-118.018;2022-12-07T03:04:33;100323.69;;;12.86;74.38
50368;BME280;36281;34.132;-118.018;2022-12-07T03:07:06;100327.22;;;12.80;74.09
50368;BME280;36281;34.132;-118.018;2022-12-07T03:09:39;100330.13;;;12.72;74.38
50368;BME280;36281;34.132;-118.018;2022-12-07T03:12:12;100334.84;;;12.70;74.84
50368;BME280;36281;34.132;-118.018;2022-12-07T03:14:43;100339.19;;;12.64;74.87
50368;BME280;36281;34.132;-118.018;2022-12-07T03:17:15;100337.34;;;12.65;74.68
50368;BME280;36281;34.132;-118.018;2022-12-07T03:19:44;100332.88;;;12.59;75.06
50368;BME280;36281;34.132;-118.018;2022-12-07T03:22:14;100340.47;;;12.55;75.25
50368;BME280;36281;34.132;-118.018;2022-12-07T03:24:44;100328.03;;;12.49;75.47
50368;BME280;36281;34.132;-118.018;2022-12-07T03:27:14;100323.56;;;12.43;76.08
50368;BME280;36281;34.132;-118.018;2022-12-07T03:29:45;100327.06;;;12.44;76.21
50368;BME280;36281;34.132;-118.018;2022-12-07T03:32:19;100329.31;;;12.40;76.52
50368;BME280;36281;34.132;-118.018;2022-12-07T03:34:50;100324.41;;;12.37;76.41
50368;BME280;36281;34.132;-118.018;2022-12-07T03:37:22;100321.16;;;12.35;76.34
50368;BME280;36281;34.132;-118.018;2022-12-07T03:39:57;100326.69;;;12.33;76.51
50368;BME280;36281;34.132;-118.018;2022-12-07T03:42:27;100328.53;;;12.26;76.80
50368;BME280;36281;34.132;-118.018;2022-12-07T03:44:55;100335.09;;;12.24;76.77
50368;BME280;36281;34.132;-118.018;2022-12-07T03:47:26;100332.69;;;12.15;76.60
50368;BME280;36281;34.132;-118.018;2022-12-07T03:49:57;100336.81;;;12.05;77.36
50368;BME280;36281;34.132;-118.018;2022-12-07T03:52:28;100340.72;;;11.96;78.23
50368;BME280;36281;34.132;-118.018;2022-12-07T03:54:59;100334.63;;;11.88;78.73
50368;BME280;36281;34.132;-118.018;2022-12-07T03:57:29;100331.94;;;11.95;78.74
50368;BME280;36281;34.132;-118.018;2022-12-07T03:59:59;100334.78;;;12.00;78.58
50368;BME280;36281;34.132;-118.018;2022-12-07T04:02:29;100339.28;;;12.00;78.84
50368;BME280;36281;34.132;-118.018;2022-12-07T04:04:58;100338.09;;;11.89;79.05
50368;BME280;36281;34.132;-118.018;2022-12-07T04:07:26;100337.66;;;11.99;78.99
50368;BME280;36281;34.132;-118.018;2022-12-07T04:09:54;100341.09;;;12.06;78.97
50368;BME280;36281;34.132;-118.018;2022-12-07T04:12:23;100347.44;;;12.05;79.59
50368;BME280;36281;34.132;-118.018;2022-12-07T04:14:51;100345.19;;;12.02;79.63
50368;BME280;36281;34.132;-118.018;2022-12-07T04:17:19;100350.28;;;12.03;79.10
50368;BME280;36281;34.132;-118.018;2022-12-07T04:19:49;100357.63;;;12.08;79.19
50368;BME280;36281;34.132;-118.018;2022-12-07T04:22:18;100353.97;;;12.09;78.98
50368;BME280;36281;34.132;-118.018;2022-12-07T04:24:46;100357.84;;;12.06;78.83
50368;BME280;36281;34.132;-118.018;2022-12-07T04:27:14;100351.94;;;11.98;79.19
50368;BME280;36281;34.132;-118.018;2022-12-07T04:29:42;100353.59;;;11.99;79.04
50368;BME280;36281;34.132;-118.018;2022-12-07T04:32:10;100362.97;;;11.88;79.14
50368;BME280;36281;34.132;-118.018;2022-12-07T04:34:39;100359.53;;;11.74;79.92
50368;BME280;36281;34.132;-118.018;2022-12-07T04:37:08;100364.84;;;11.61;80.00
50368;BME280;36281;34.132;-118.018;2022-12-07T04:39:37;100363.41;;;11.52;80.96
50368;BME280;36281;34.132;-118.018;2022-12-07T04:42:05;100366.06;;;11.58;80.71
50368;BME280;36281;34.132;-118.018;2022-12-07T04:44:33;100368.09;;;11.63;80.45
50368;BME280;36281;34.132;-118.018;2022-12-07T04:47:01;100364.88;;;11.54;80.51
50368;BME280;36281;34.132;-118.018;2022-12-07T04:49:30;100372.81;;;11.41;80.39
50368;BME280;36281;34.132;-118.018;2022-12-07T04:51:58;100376.69;;;11.38;80.90
50368;BME280;36281;34.132;-118.018;2022-12-07T04:54:28;100379.75;;;11.49;80.82
50368;BME280;36281;34.132;-118.018;2022-12-07T04:56:56;100379.56;;;11.50;80.24
50368;BME280;36281;34.132;-118.018;2022-12-07T04:59:25;100383.63;;;11.46;80.22
50368;BME280;36281;34.132;-118.018;2022-12-07T05:01:53;100379.13;;;11.47;80.42
50368;BME280;36281;34.132;-118.018;2022-12-07T05:04:21;100385.88;;;11.36;80.67
50368;BME280;36281;34.132;-118.018;2022-12-07T05:06:50;100386.28;;;11.39;80.84
50368;BME280;36281;34.132;-118.018;2022-12-07T05:09:18;100396.69;;;11.34;80.97
50368;BME280;36281;34.132;-118.018;2022-12-07T05:11:48;100398.31;;;11.35;81.07
50368;BME280;36281;34.132;-118.018;2022-12-07T05:14:17;100395.66;;;11.35;81.41
50368;BME280;36281;34.132;-118.018;2022-12-07T05:16:46;100403.41;;;11.30;81.77
50368;BME280;36281;34.132;-118.018;2022-12-07T05:19:15;100400.13;;;11.28;82.14
50368;BME280;36281;34.132;-118.018;2022-12-07T05:21:44;100411.97;;;11.26;82.36
50368;BME280;36281;34.132;-118.018;2022-12-07T05:24:12;100408.72;;;11.30;82.51
50368;BME280;36281;34.132;-118.018;2022-12-07T05:26:41;100411.59;;;11.29;82.79
50368;BME280;36281;34.132;-118.018;2022-12-07T05:29:12;100409.94;;;11.28;82.82
50368;BME280;36281;34.132;-118.018;2022-12-07T05:31:41;100410.75;;;11.35;82.49
50368;BME280;36281;34.132;-118.018;2022-12-07T05:34:09;100416.47;;;11.38;82.69
50368;BME280;36281;34.132;-118.018;2022-12-07T05:36:38;100415.47;;;11.39;82.42
50368;BME280;36281;34.132;-118.018;2022-12-07T05:39:06;100416.28;;;11.40;82.57
50368;BME280;36281;34.132;-118.018;2022-12-07T05:41:35;100415.47;;;11.39;82.70
50368;BME280;36281;34.132;-118.018;2022-12-07T05:44:23;100420.13;;;11.37;82.31
50368;BME280;36281;34.132;-118.018;2022-12-07T05:46:51;100410.13;;;11.26;82.46
50368;BME280;36281;34.132;-118.018;2022-12-07T05:49:19;100418.31;;;11.31;82.37
50368;BME280;36281;34.132;-118.018;2022-12-07T05:51:48;100421.34;;;11.28;82.68
50368;BME280;36281;34.132;-118.018;2022-12-07T05:54:16;100422.19;;;11.29;82.16
50368;BME280;36281;34.132;-118.018;2022-12-07T05:56:44;100425.03;;;11.21;82.65
50368;BME280;36281;34.132;-118.018;2022-12-07T05:59:12;100419.50;;;11.22;82.53
50368;BME280;36281;34.132;-118.018;2022-12-07T06:01:52;100419.72;;;11.21;82.08
50368;BME280;36281;34.132;-118.018;2022-12-07T06:04:20;100420.94;;;11.11;82.39
50368;BME280;36281;34.132;-118.018;2022-12-07T06:06:49;100420.94;;;11.11;82.09
50368;BME280;36281;34.132;-118.018;2022-12-07T06:09:18;100414.81;;;11.11;82.23
50368;BME280;36281;34.132;-118.018;2022-12-07T06:11:46;100422.56;;;11.06;81.74
50368;BME280;36281;34.132;-118.018;2022-12-07T06:14:33;100422.13;;;10.96;82.20
50368;BME280;36281;34.132;-118.018;2022-12-07T06:17:03;100422.13;;;10.96;82.31
50368;BME280;36281;34.132;-118.018;2022-12-07T06:19:31;100418.03;;;10.93;82.31
50368;BME280;36281;34.132;-118.018;2022-12-07T06:22:00;100421.88;;;10.84;82.37
50368;BME280;36281;34.132;-118.018;2022-12-07T06:24:28;100425.16;;;10.79;82.48
50368;BME280;36281;34.132;-118.018;2022-12-07T06:26:56;100430.22;;;10.74;82.50
50368;BME280;36281;34.132;-118.018;2022-12-07T06:29:24;100433.06;;;10.73;82.30
50368;BME280;36281;34.132;-118.018;2022-12-07T06:31:53;100431.00;;;10.68;82.34
50368;BME280;36281;34.132;-118.018;2022-12-07T06:34:23;100431.78;;;10.55;82.95
50368;BME280;36281;34.132;-118.018;2022-12-07T06:36:51;100432.75;;;10.48;83.21
50368;BME280;36281;34.132;-118.018;2022-12-07T06:39:23;100438.09;;;10.54;82.99
50368;BME280;36281;34.132;-118.018;2022-12-07T06:41:51;100440.75;;;10.54;82.68
50368;BME280;36281;34.132;-118.018;2022-12-07T06:44:20;100442.75;;;10.52;82.40
50368;BME280;36281;34.132;-118.018;2022-12-07T06:46:49;100439.50;;;10.50;81.91
50368;BME280;36281;34.132;-118.018;2022-12-07T06:49:18;100441.50;;;10.48;81.54
50368;BME280;36281;34.132;-118.018;2022-12-07T06:51:48;100445.53;;;10.38;81.74
50368;BME280;36281;34.132;-118.018;2022-12-07T06:54:16;100441.84;;;10.32;82.02
50368;BME280;36281;34.132;-118.018;2022-12-07T06:56:44;100448.59;;;10.34;82.28
50368;BME280;36281;34.132;-118.018;2022-12-07T06:59:13;100446.31;;;10.31;82.10
50368;BME280;36281;34.132;-118.018;2022-12-07T07:01:41;100454.66;;;10.28;82.23
50368;BME280;36281;34.132;-118.018;2022-12-07T07:04:09;100456.47;;;10.28;82.23
50368;BME280;36281;34.132;-118.018;2022-12-07T07:06:38;100450.38;;;10.27;82.17
50368;BME280;36281;34.132;-118.018;2022-12-07T07:09:08;100463.47;;;10.14;82.19
50368;BME280;36281;34.132;-118.018;2022-12-07T07:11:37;100461.81;;;10.06;83.21
50368;BME280;36281;34.132;-118.018;2022-12-07T07:14:05;100468.63;;;9.94;83.47
50368;BME280;36281;34.132;-118.018;2022-12-07T07:16:33;100462.19;;;10.03;83.42
50368;BME280;36281;34.132;-118.018;2022-12-07T07:19:02;100465.66;;;10.04;83.09
50368;BME280;36281;34.132;-118.018;2022-12-07T07:21:30;100463.44;;;10.07;82.89
50368;BME280;36281;34.132;-118.018;2022-12-07T07:23:58;100464.44;;;10.00;83.56
50368;BME280;36281;34.132;-118.018;2022-12-07T07:26:28;100468.50;;;10.02;83.39
50368;BME280;36281;34.132;-118.018;2022-12-07T07:28:56;100470.56;;;10.07;83.23
50368;BME280;36281;34.132;-118.018;2022-12-07T07:31:24;100474.03;;;10.07;82.95
50368;BME280;36281;34.132;-118.018;2022-12-07T07:33:53;100475.03;;;10.00;82.96
50368;BME280;36281;34.132;-118.018;2022-12-07T07:36:21;100475.75;;;9.94;83.71
50368;BME280;36281;34.132;-118.018;2022-12-07T07:38:49;100470.91;;;9.97;83.79
50368;BME280;36281;34.132;-118.018;2022-12-07T07:41:17;100472.16;;;10.01;83.37
50368;BME280;36281;34.132;-118.018;2022-12-07T07:43:47;100475.41;;;9.97;83.20
50368;BME280;36281;34.132;-118.018;2022-12-07T07:46:15;100473.69;;;9.89;83.57
50368;BME280;36281;34.132;-118.018;2022-12-07T07:48:44;100469.81;;;9.85;83.22
50368;BME280;36281;34.132;-118.018;2022-12-07T07:51:12;100461.06;;;9.84;83.31
50368;BME280;36281;34.132;-118.018;2022-12-07T07:53:40;100464.31;;;9.87;83.11
50368;BME280;36281;34.132;-118.018;2022-12-07T07:56:08;100467.56;;;9.82;83.22
50368;BME280;36281;34.132;-118.018;2022-12-07T07:58:36;100467.69;;;9.74;83.14
50368;BME280;36281;34.132;-118.018;2022-12-07T08:01:08;100467.50;;;9.75;83.24
50368;BME280;36281;34.132;-118.018;2022-12-07T08:03:36;100467.03;;;9.65;83.11
50368;BME280;36281;34.132;-118.018;2022-12-07T08:06:05;100470.72;;;9.71;83.08
50368;BME280;36281;34.132;-118.018;2022-12-07T08:08:33;100467.88;;;9.72;82.88
50368;BME280;36281;34.132;-118.018;2022-12-07T08:11:04;100472.47;;;9.64;83.00
50368;BME280;36281;34.132;-118.018;2022-12-07T08:13:33;100472.69;;;9.62;82.93
50368;BME280;36281;34.132;-118.018;2022-12-07T08:16:03;100469.59;;;9.58;82.91
50368;BME280;36281;34.132;-118.018;2022-12-07T08:18:33;100470.16;;;9.54;82.74
50368;BME280;36281;34.132;-118.018;2022-12-07T08:21:03;100468.91;;;9.50;82.66
50368;BME280;36281;34.132;-118.018;2022-12-07T08:23:31;100474.94;;;9.44;82.78
50368;BME280;36281;34.132;-118.018;2022-12-07T08:26:06;100473.50;;;9.41;83.01
50368;BME280;36281;34.132;-118.018;2022-12-07T08:28:35;100478.59;;;9.43;83.05
50368;BME280;36281;34.132;-118.018;2022-12-07T08:31:04;100475.34;;;9.41;83.37
50368;BME280;36281;34.132;-118.018;2022-12-07T08:33:34;100476.91;;;9.35;83.45
50368;BME280;36281;34.132;-118.018;2022-12-07T08:36:03;100469.81;;;9.36;83.54
50368;BME280;36281;34.132;-118.018;2022-12-07T08:38:33;100469.16;;;9.33;83.51
50368;BME280;36281;34.132;-118.018;2022-12-07T08:41:01;100471.50;;;9.22;83.77
50368;BME280;36281;34.132;-118.018;2022-12-07T08:43:30;100468.66;;;9.23;84.25
50368;BME280;36281;34.132;-118.018;2022-12-07T08:46:01;100478.03;;;9.26;84.33
50368;BME280;36281;34.132;-118.018;2022-12-07T08:48:32;100481.09;;;9.29;84.39
50368;BME280;36281;34.132;-118.018;2022-12-07T08:51:02;100480.69;;;9.26;83.97
50368;BME280;36281;34.132;-118.018;2022-12-07T08:53:30;100483.25;;;9.19;83.88
50368;BME280;36281;34.132;-118.018;2022-12-07T08:55:59;100488.09;;;9.16;84.03
50368;BME280;36281;34.132;-118.018;2022-12-07T08:58:28;100485.19;;;9.11;84.23
50368;BME280;36281;34.132;-118.018;2022-12-07T09:00:56;100488.81;;;9.10;84.25
50368;BME280;36281;34.132;-118.018;2022-12-07T09:03:24;100492.69;;;9.07;84.67
50368;BME280;36281;34.132;-118.018;2022-12-07T09:05:52;100498.56;;;9.09;84.83
50368;BME280;36281;34.132;-118.018;2022-12-07T09:08:23;100497.13;;;9.06;84.61
50368;BME280;36281;34.132;-118.018;2022-12-07T09:10:53;100488.13;;;9.01;84.64
50368;BME280;36281;34.132;-118.018;2022-12-07T09:13:22;100492.78;;;8.99;84.72
50368;BME280;36281;34.132;-118.018;2022-12-07T09:15:50;100494.16;;;8.95;84.54
50368;BME280;36281;34.132;-118.018;2022-12-07T09:18:18;100497.19;;;8.92;83.94
50368;BME280;36281;34.132;-118.018;2022-12-07T09:20:47;100495.91;;;8.88;84.65
50368;BME280;36281;34.132;-118.018;2022-12-07T09:23:15;100494.53;;;8.92;84.41
50368;BME280;36281;34.132;-118.018;2022-12-07T09:25:45;100492.19;;;8.82;84.71
50368;BME280;36281;34.132;-118.018;2022-12-07T09:28:13;100491.25;;;8.75;85.16
50368;BME280;36281;34.132;-118.018;2022-12-07T09:30:45;100489.19;;;8.70;85.61
50368;BME280;36281;34.132;-118.018;2022-12-07T09:33:33;100493.00;;;8.68;85.87
50368;BME280;36281;34.132;-118.018;2022-12-07T09:36:03;100497.47;;;8.67;85.81
50368;BME280;36281;34.132;-118.018;2022-12-07T09:38:31;100499.03;;;8.76;85.11
50368;BME280;36281;34.132;-118.018;2022-12-07T09:41:05;100500.03;;;8.75;84.83
50368;BME280;36281;34.132;-118.018;2022-12-07T09:43:34;100498.63;;;8.79;84.24
50368;BME280;36281;34.132;-118.018;2022-12-07T09:46:03;100503.03;;;8.72;84.61
50368;BME280;36281;34.132;-118.018;2022-12-07T09:48:32;100501.69;;;8.62;85.17
50368;BME280;36281;34.132;-118.018;2022-12-07T09:51:01;100503.38;;;8.69;85.32
50368;BME280;36281;34.132;-118.018;2022-12-07T09:53:30;100501.00;;;8.74;84.99
50368;BME280;36281;34.132;-118.018;2022-12-07T09:55:58;100500.75;;;8.69;85.09
50368;BME280;36281;34.132;-118.018;2022-12-07T09:58:28;100502.13;;;8.65;85.15
50368;BME280;36281;34.132;-118.018;2022-12-07T10:00:58;100500.31;;;8.66;85.31
50368;BME280;36281;34.132;-118.018;2022-12-07T10:03:27;100503.03;;;8.72;84.62
50368;BME280;36281;34.132;-118.018;2022-12-07T10:05:56;100507.97;;;8.75;84.18
50368;BME280;36281;34.132;-118.018;2022-12-07T10:08:24;100505.75;;;8.64;84.12
50368;BME280;36281;34.132;-118.018;2022-12-07T10:10:53;100506.56;;;8.50;84.69
50368;BME280;36281;34.132;-118.018;2022-12-07T10:13:33;100507.16;;;8.45;84.55
50368;BME280;36281;34.132;-118.018;2022-12-07T10:16:03;100511.84;;;8.50;85.01
50368;BME280;36281;34.132;-118.018;2022-12-07T10:18:33;100516.44;;;8.56;84.31
50368;BME280;36281;34.132;-118.018;2022-12-07T10:21:10;100508.66;;;8.54;84.36
50368;BME280;36281;34.132;-118.018;2022-12-07T10:23:39;100514.78;;;8.55;84.43
50368;BME280;36281;34.132;-118.018;2022-12-07T10:26:21;100517.78;;;8.52;84.05
50368;BME280;36281;34.132;-118.018;2022-12-07T10:28:53;100526.25;;;8.47;84.13
50368;BME280;36281;34.132;-118.018;2022-12-07T10:31:23;100525.78;;;8.44;84.15
50368;BME280;36281;34.132;-118.018;2022-12-07T10:33:52;100525.59;;;8.31;83.70
50368;BME280;36281;34.132;-118.018;2022-12-07T10:36:22;100520.56;;;8.21;84.16
50368;BME280;36281;34.132;-118.018;2022-12-07T10:38:52;100523.22;;;8.21;85.03
50368;BME280;36281;34.132;-118.018;2022-12-07T10:41:21;100535.28;;;8.15;84.87
50368;BME280;36281;34.132;-118.018;2022-12-07T10:43:50;100528.66;;;8.19;85.19
50368;BME280;36281;34.132;-118.018;2022-12-07T10:46:32;100539.84;;;8.21;84.86
50368;BME280;36281;34.132;-118.018;2022-12-07T10:49:08;100539.94;;;8.13;84.59
50368;BME280;36281;34.132;-118.018;2022-12-07T10:51:43;100533.00;;;8.12;85.51
50368;BME280;36281;34.132;-118.018;2022-12-07T10:54:16;100532.91;;;8.20;84.90
50368;BME280;36281;34.132;-118.018;2022-12-07T10:56:53;100531.00;;;8.14;85.47
50368;BME280;36281;34.132;-118.018;2022-12-07T11:02:14;100527.19;;;8.17;85.63
50368;BME280;36281;34.132;-118.018;2022-12-07T11:04:52;100514.59;;;8.04;85.18
50368;BME280;36281;34.132;-118.018;2022-12-07T11:07:24;100530.00;;;8.15;84.61
50368;BME280;36281;34.132;-118.018;2022-12-07T11:10:02;100525.91;;;8.13;84.68
50368;BME280;36281;34.132;-118.018;2022-12-07T11:12:39;100517.81;;;8.14;84.93
50368;BME280;36281;34.132;-118.018;2022-12-07T11:15:12;100523.81;;;8.08;85.03
50368;BME280;36281;34.132;-118.018;2022-12-07T11:17:45;100520.53;;;8.06;85.43
50368;BME280;36281;34.132;-118.018;2022-12-07T11:20:22;100516.38;;;8.12;85.20
50368;BME280;36281;34.132;-118.018;2022-12-07T11:22:58;100512.53;;;8.14;85.05
50368;BME280;36281;34.132;-118.018;2022-12-07T11:25:31;100524.09;;;8.13;85.55
50368;BME280;36281;34.132;-118.018;2022-12-07T11:28:06;100520.00;;;8.11;85.88
50368;BME280;36281;34.132;-118.018;2022-12-07T11:30:41;100515.34;;;8.13;85.20
50368;BME280;36281;34.132;-118.018;2022-12-07T11:33:14;100522.09;;;8.15;85.04
50368;BME280;36281;34.132;-118.018;2022-12-07T11:35:50;100518.47;;;8.16;84.91
50368;BME280;36281;34.132;-118.018;2022-12-07T11:38:24;100521.66;;;8.12;84.30
50368;BME280;36281;34.132;-118.018;2022-12-07T11:40:56;100524.69;;;8.00;84.51
50368;BME280;36281;34.132;-118.018;2022-12-07T11:43:44;100518.78;;;7.98;84.81
50368;BME280;36281;34.132;-118.018;2022-12-07T11:46:16;100539.63;;;8.08;84.58
50368;BME280;36281;34.132;-118.018;2022-12-07T11:48:47;100529.44;;;8.05;84.31
50368;BME280;36281;34.132;-118.018;2022-12-07T11:51:18;100537.53;;;8.03;84.58
50368;BME280;36281;34.132;-118.018;2022-12-07T11:53:49;100544.69;;;7.95;85.47
50368;BME280;36281;34.132;-118.018;2022-12-07T11:56:20;100539.41;;;7.95;85.73
50368;BME280;36281;34.132;-118.018;2022-12-07T11:58:49;100535.72;;;8.04;85.59
50368;BME280;36281;34.132;-118.018;2022-12-07T12:01:26;100539.00;;;8.06;85.67
50368;BME280;36281;34.132;-118.018;2022-12-07T12:04:00;100535.91;;;8.02;85.13
50368;BME280;36281;34.132;-118.018;2022-12-07T12:06:30;100538.16;;;7.91;85.69
50368;BME280;36281;34.132;-118.018;2022-12-07T12:08:59;100544.00;;;8.01;85.33
50368;BME280;36281;34.132;-118.018;2022-12-07T12:12:00;100547.47;;;8.01;85.35
50368;BME280;36281;34.132;-118.018;2022-12-07T12:14:56;100544.34;;;7.98;84.93
50368;BME280;36281;34.132;-118.018;2022-12-07T12:17:41;100546.88;;;7.91;84.65
50368;BME280;36281;34.132;-118.018;2022-12-07T12:20:19;100549.34;;;7.93;85.11
50368;BME280;36281;34.132;-118.018;2022-12-07T12:22:50;100551.22;;;7.84;84.61
50368;BME280;36281;34.132;-118.018;2022-12-07T12:25:20;100551.28;;;7.76;84.66
50368;BME280;36281;34.132;-118.018;2022-12-07T12:27:49;100548.53;;;7.69;84.32
50368;BME280;36281;34.132;-118.018;2022-12-07T12:30:25;100546.53;;;7.71;84.79
50368;BME280;36281;34.132;-118.018;2022-12-07T12:33:00;100545.72;;;7.71;84.89
50368;BME280;36281;34.132;-118.018;2022-12-07T12:35:31;100544.19;;;7.76;84.90
50368;BME280;36281;34.132;-118.018;2022-12-07T12:40:46;100551.00;;;7.71;84.60
50368;BME280;36281;34.132;-118.018;2022-12-07T12:48:49;100566.63;;;7.72;85.37
50368;BME280;36281;34.132;-118.018;2022-12-07T12:51:37;100565.34;;;7.68;85.40
50368;BME280;36281;34.132;-118.018;2022-12-07T12:54:10;100572.44;;;7.68;85.24
50368;BME280;36281;34.132;-118.018;2022-12-07T12:56:43;100572.63;;;7.66;85.56
50368;BME280;36281;34.132;-118.018;2022-12-07T12:59:24;100575.25;;;7.66;85.83
50368;BME280;36281;34.132;-118.018;2022-12-07T13:01:54;100576.88;;;7.67;85.82